Time;durP1;ratioP1;P1;durP2;ratioP2;P2;SDS_P1;SDS_P2;PMS_P1;PMS_P2;Temp;Humidity;BMP_temperature;BMP_pressure;BME280_temperature;BME280_humidity;BME280_pressure;Samples;Min_cycle;Max_cycle;Signal;HPM_P1;HPM_P2
2023/02/15 00:00:26;;;;;;;13.60;4.15;;;0.10;97.30;;;;;;5075292;28;20499;-86
2023/02/15 00:02:51;;;;;;;5.67;4.70;;;0.10;97.30;;;;;;5057636;28;20209;-86
2023/02/15 00:05:17;;;;;;;9.87;2.80;;;0.10;97.30;;;;;;5057188;28;20186;-86
2023/02/15 00:07:42;;;;;;;8.87;5.57;;;0.10;97.30;;;;;;5057699;28;20180;-86
2023/02/15 00:10:08;;;;;;;7.43;4.80;;;0.10;97.30;;;;;;5061382;28;20170;-86
2023/02/15 00:12:34;;;;;;;14.50;4.70;;;0.10;97.30;;;;;;5065640;28;20672;-86
2023/02/15 00:14:59;;;;;;;3.93;3.43;;;0.20;97.30;;;;;;5082713;28;20428;-86
2023/02/15 00:17:28;;;;;;;8.70;7.10;;;0.20;97.30;;;;;;5065558;28;20176;-86
2023/02/15 00:19:53;;;;;;;5.93;5.10;;;0.20;97.30;;;;;;5065402;28;20252;-86
2023/02/15 00:22:19;;;;;;;10.53;4.10;;;0.20;97.30;;;;;;5064534;28;20222;-86
2023/02/15 00:24:45;;;;;;;5.70;3.53;;;0.20;97.30;;;;;;5057644;28;20179;-86
2023/02/15 00:27:10;;;;;;;4.77;4.47;;;0.10;97.30;;;;;;5057315;28;20421;-85
2023/02/15 00:29:36;;;;;;;15.10;5.43;;;0.20;97.30;;;;;;5056645;28;20227;-86
2023/02/15 00:32:01;;;;;;;5.13;3.30;;;0.20;97.30;;;;;;5057357;28;20182;-86
2023/02/15 00:34:28;;;;;;;10.90;7.23;;;0.20;97.30;;;;;;5057173;28;20256;-86
2023/02/15 00:36:53;;;;;;;7.20;4.80;;;0.20;97.30;;;;;;5057591;28;20244;-85
2023/02/15 00:39:19;;;;;;;8.10;5.30;;;0.20;97.30;;;;;;5057097;28;20468;-86
2023/02/15 00:41:46;;;;;;;4.03;3.80;;;0.10;97.30;;;;;;5056595;28;20297;-86
2023/02/15 00:44:12;;;;;;;4.47;4.20;;;0.10;97.30;;;;;;5056400;28;20496;-86
2023/02/15 00:46:38;;;;;;;6.83;4.33;;;0.10;97.30;;;;;;5055033;28;20512;-86
2023/02/15 00:49:04;;;;;;;5.03;4.63;;;0.10;97.30;;;;;;5055007;28;21026;-86
2023/02/15 00:51:29;;;;;;;5.33;5.03;;;0.10;97.30;;;;;;5036802;28;20180;-86
2023/02/15 00:53:55;;;;;;;4.03;3.73;;;0.10;97.30;;;;;;5037084;28;20502;-86
2023/02/15 00:56:20;;;;;;;11.33;5.40;;;0.10;97.30;;;;;;5054279;28;20231;-86
2023/02/15 00:58:46;;;;;;;9.27;6.43;;;0.10;97.30;;;;;;5036546;28;20244;-86
2023/02/15 01:01:18;;;;;;;5.60;4.47;;;0.10;97.30;;;;;;5054784;28;20424;-84
2023/02/15 01:03:45;;;;;;;18.10;6.37;;;0.10;97.30;;;;;;5037377;28;20186;-86
2023/02/15 01:06:11;;;;;;;6.00;5.50;;;0.10;97.30;;;;;;5044554;28;20477;-86
2023/02/15 01:08:37;;;;;;;6.70;4.20;;;0.10;97.30;;;;;;5047984;28;20418;-86
2023/02/15 01:11:24;;;;;;;6.00;4.27;;;0.10;97.30;;;;;;5054116;28;20438;-86
2023/02/15 01:13:52;;;;;;;4.83;4.53;;;0.10;97.30;;;;;;5034924;28;20456;-86
2023/02/15 01:16:18;;;;;;;9.30;7.87;;;0.10;97.30;;;;;;5036087;28;20445;-86
2023/02/15 01:18:43;;;;;;;7.07;4.63;;;0.10;97.30;;;;;;5035822;28;20458;-86
2023/02/15 01:21:11;;;;;;;4.60;3.50;;;0.10;97.30;;;;;;5054059;28;20848;-86
2023/02/15 01:23:37;;;;;;;5.33;5.03;;;0.10;97.30;;;;;;5036520;28;20383;-85
2023/02/15 01:26:02;;;;;;;8.13;5.27;;;0.10;97.30;;;;;;5036336;28;20430;-86
2023/02/15 01:28:28;;;;;;;3.03;2.83;;;0.00;97.30;;;;;;5054429;28;20449;-86
2023/02/15 01:30:53;;;;;;;8.63;4.80;;;0.00;97.30;;;;;;5036111;28;20255;-85
2023/02/15 01:33:19;;;;;;;6.13;4.80;;;0.00;97.30;;;;;;5035954;28;20192;-86
2023/02/15 01:35:46;;;;;;;5.60;4.67;;;0.00;97.30;;;;;;5036828;28;20655;-86
2023/02/15 01:38:12;;;;;;;6.33;4.50;;;0.00;97.30;;;;;;5035856;28;20199;-86
2023/02/15 01:40:38;;;;;;;6.43;3.33;;;0.00;97.30;;;;;;5036808;28;20834;-86
2023/02/15 01:43:10;;;;;;;7.37;4.63;;;-0.10;97.30;;;;;;5035297;28;20420;-86
2023/02/15 01:45:35;;;;;;;14.13;2.40;;;-0.10;97.30;;;;;;5036066;28;20426;-86
2023/02/15 01:48:25;;;;;;;7.33;4.30;;;-0.10;97.30;;;;;;5068611;28;20477;-85
2023/02/15 01:50:54;;;;;;;4.37;4.13;;;-0.20;97.30;;;;;;5029001;28;20176;-86
2023/02/15 01:53:49;;;;;;;5.23;3.80;;;-0.20;97.30;;;;;;5035913;28;20422;-85
2023/02/15 01:56:20;;;;;;;9.20;5.03;;;-0.20;97.30;;;;;;5023412;28;20449;-86
2023/02/15 01:58:47;;;;;;;3.77;3.57;;;-0.20;97.30;;;;;;5053735;28;20460;-85
2023/02/15 02:01:13;;;;;;;6.60;5.00;;;-0.20;97.30;;;;;;5053881;28;20591;-85
2023/02/15 02:03:57;;;;;;;4.50;4.25;;;-0.30;97.30;;;;;;5035840;28;20805;-85
2023/02/15 02:06:23;;;;;;;18.43;3.87;;;-0.30;97.30;;;;;;5035640;28;20439;-85
2023/02/15 02:08:49;;;;;;;8.33;4.13;;;-0.30;97.30;;;;;;5035452;28;20825;-86
2023/02/15 02:11:15;;;;;;;9.03;3.60;;;-0.30;97.30;;;;;;5035408;28;20234;-86
2023/02/15 02:13:43;;;;;;;8.03;3.70;;;-0.30;97.30;;;;;;5026953;28;20432;-85
2023/02/15 02:16:21;;;;;;;4.57;3.00;;;-0.40;97.30;;;;;;5034539;28;20456;-86
2023/02/15 02:19:12;;;;;;;10.23;4.07;;;-0.40;97.30;;;;;;5035300;28;20246;-86
2023/02/15 02:22:09;;;;;;;3.63;2.57;;;-0.40;97.30;;;;;;5052608;28;20416;-86
2023/02/15 02:25:06;;;;;;;5.27;4.50;;;-0.40;97.30;;;;;;5034961;28;20216;-86
2023/02/15 02:27:41;;;;;;;6.00;4.00;;;-0.40;97.30;;;;;;5053646;28;20409;-86
2023/02/15 02:30:13;;;;;;;8.80;5.17;;;-0.40;97.30;;;;;;5034990;28;20567;-86
2023/02/15 02:32:59;;;;;;;11.67;6.63;;;-0.50;97.30;;;;;;5035028;28;20449;-86
2023/02/15 02:35:59;;;;;;;4.77;4.30;;;-0.50;97.30;;;;;;5035158;28;20525;-86
2023/02/15 02:38:54;;;;;;;5.57;4.20;;;-0.50;97.30;;;;;;5015835;28;20865;-86
2023/02/15 02:41:39;;;;;;;2.60;2.40;;;-0.50;97.30;;;;;;5035374;28;20417;-85
2023/02/15 02:44:09;;;;;;;5.03;3.27;;;-0.60;97.30;;;;;;5036186;28;21067;-85
2023/02/15 02:46:38;;;;;;;4.93;4.03;;;-0.60;97.30;;;;;;5035211;28;20434;-86
2023/02/15 02:49:04;;;;;;;3.77;3.57;;;-0.60;97.30;;;;;;5035214;28;20395;-86
2023/02/15 02:51:29;;;;;;;5.40;4.77;;;-0.70;97.30;;;;;;5035533;28;20509;-86
2023/02/15 02:53:59;;;;;;;9.13;5.17;;;-0.70;97.30;;;;;;5036971;28;20187;-85
2023/02/15 02:56:33;;;;;;;6.80;3.90;;;-0.70;97.30;;;;;;5039198;28;20237;-86
2023/02/15 02:59:24;;;;;;;3.17;2.97;;;-0.80;97.30;;;;;;5039220;28;20480;-85
2023/02/15 03:01:58;;;;;;;3.47;3.13;;;-0.80;97.30;;;;;;5032710;28;20414;-86
2023/02/15 03:04:33;;;;;;;10.63;4.87;;;-0.80;97.30;;;;;;5039385;28;20422;-85
2023/02/15 03:07:02;;;;;;;3.77;3.60;;;-0.80;97.30;;;;;;5039250;28;20469;-86
2023/02/15 03:09:42;;;;;;;3.17;2.97;;;-0.80;97.30;;;;;;5039187;28;20418;-86
2023/02/15 03:12:11;;;;;;;6.23;3.60;;;-0.90;97.30;;;;;;5039247;28;20513;-86
2023/02/15 03:14:38;;;;;;;13.30;3.57;;;-0.90;97.30;;;;;;5029972;28;20876;-85
2023/02/15 03:17:06;;;;;;;8.35;3.55;;;-0.90;97.30;;;;;;5039256;28;20524;-86
2023/02/15 03:19:34;;;;;;;4.43;4.13;;;-0.90;97.30;;;;;;5038321;28;20235;-85
2023/02/15 03:22:08;;;;;;;6.47;3.53;;;-1.00;97.30;;;;;;5057320;28;20215;-85
2023/02/15 03:25:10;;;;;;;2.00;1.90;;;-0.90;97.30;;;;;;5039762;28;20409;-86
2023/02/15 03:27:40;;;;;;;4.77;4.47;;;-1.00;97.30;;;;;;5031931;28;20677;-86
2023/02/15 03:30:09;;;;;;;5.70;4.10;;;-1.00;97.30;;;;;;5038292;28;20392;-86
2023/02/15 03:32:37;;;;;;;8.20;5.80;;;-1.00;97.30;;;;;;5038496;28;20395;-86
2023/02/15 03:35:03;;;;;;;10.35;4.00;;;-1.00;97.30;;;;;;5038507;28;20458;-86
2023/02/15 03:37:47;;;;;;;3.77;3.20;;;-1.00;97.30;;;;;;5038554;28;20410;-86
2023/02/15 03:43:14;;;;;;;;;;;-1.10;97.30;;;;;;5051134;28;20424;-86
2023/02/15 03:45:54;;;;;;;;;;;-1.10;97.30;;;;;;5037139;28;20223;-86
2023/02/15 03:48:28;;;;;;;9.45;6.25;;;-1.10;97.30;;;;;;5055763;28;20454;-85
2023/02/15 03:53:48;;;;;;;9.40;3.23;;;-1.10;97.30;;;;;;5048411;28;20208;-85
2023/02/15 03:56:13;;;;;;;5.65;3.25;;;-1.10;97.30;;;;;;5038277;28;20437;-85
2023/02/15 04:04:42;;;;;;;5.70;3.73;;;-1.20;97.30;;;;;;5055560;28;20420;-86
2023/02/15 04:07:09;;;;;;;4.63;2.70;;;-1.10;97.30;;;;;;5038200;28;20561;-86
2023/02/15 04:12:18;;;;;;;4.87;4.33;;;-1.10;97.30;;;;;;5056436;28;20437;-86
2023/02/15 04:17:28;;;;;;;4.60;4.30;;;-1.10;97.30;;;;;;5055923;28;20561;-86
2023/02/15 04:25:22;;;;;;;4.60;3.30;;;-1.10;97.30;;;;;;5057357;28;20528;-85
2023/02/15 04:27:53;;;;;;;5.10;4.80;;;-1.10;97.30;;;;;;5071322;28;20434;-86
2023/02/15 04:30:21;;;;;;;5.17;4.87;;;-1.10;97.30;;;;;;5038144;28;20255;-85
2023/02/15 04:32:47;;;;;;;3.67;3.47;;;-1.10;97.30;;;;;;5029889;28;20823;-86
2023/02/15 04:35:14;;;;;;;6.30;4.13;;;-1.10;97.30;;;;;;5063690;28;20426;-86
2023/02/15 04:37:40;;;;;;;5.20;4.90;;;-1.20;97.30;;;;;;5037867;28;20188;-86
2023/02/15 04:40:09;;;;;;;6.03;4.83;;;-1.20;97.30;;;;;;5056070;28;20506;-86
2023/02/15 04:42:34;;;;;;;7.13;6.50;;;-1.30;97.30;;;;;;5038256;28;20943;-85
2023/02/15 04:45:00;;;;;;;3.70;3.27;;;-1.30;97.30;;;;;;5037926;28;20422;-86
2023/02/15 04:47:25;;;;;;;7.30;4.17;;;-1.30;97.30;;;;;;5045226;28;20234;-86
2023/02/15 04:49:51;;;;;;;4.50;3.83;;;-1.30;97.30;;;;;;5057167;28;20649;-86
2023/02/15 04:52:19;;;;;;;4.67;3.87;;;-1.30;97.30;;;;;;5075285;28;20575;-85
2023/02/15 04:54:45;;;;;;;4.83;2.60;;;-1.30;97.30;;;;;;5058376;28;20179;-85
2023/02/15 04:57:11;;;;;;;4.07;2.77;;;-1.30;97.30;;;;;;5058177;28;20687;-86
2023/02/15 04:59:36;;;;;;;6.07;2.53;;;-1.40;97.30;;;;;;5078334;28;20202;-86
2023/02/15 05:02:02;;;;;;;2.40;2.23;;;-1.40;97.30;;;;;;5071553;28;20183;-85
2023/02/15 05:04:27;;;;;;;2.73;2.53;;;-1.30;97.30;;;;;;5065105;28;20290;-86
2023/02/15 05:06:53;;;;;;;12.70;4.10;;;-1.30;97.30;;;;;;5066031;28;20201;-85
2023/02/15 05:09:19;;;;;;;4.37;3.50;;;-1.30;97.30;;;;;;5057950;28;20665;-85
2023/02/15 05:11:44;;;;;;;5.90;5.60;;;-1.40;97.30;;;;;;5058119;28;20217;-85
2023/02/15 05:14:10;;;;;;;2.87;2.67;;;-1.40;97.30;;;;;;5058402;28;20190;-86
2023/02/15 05:16:36;;;;;;;8.03;7.07;;;-1.40;97.30;;;;;;5058042;28;20708;-85
2023/02/15 05:19:01;;;;;;;7.30;3.50;;;-1.40;97.30;;;;;;5072166;28;20206;-86
2023/02/15 05:21:27;;;;;;;2.90;2.70;;;-1.40;97.30;;;;;;5069692;28;20179;-86
2023/02/15 05:23:53;;;;;;;7.20;6.87;;;-1.40;97.30;;;;;;5066834;28;20206;-86
2023/02/15 05:29:06;;;;;;;5.13;3.63;;;-1.40;97.30;;;;;;5092961;28;20193;-86
2023/02/15 05:31:32;;;;;;;3.53;3.27;;;-1.40;97.30;;;;;;5073722;28;20428;-86
2023/02/15 05:33:58;;;;;;;3.07;2.87;;;-1.40;97.30;;;;;;5086134;28;20424;-86
2023/02/15 05:36:24;;;;;;;4.07;3.60;;;-1.40;97.30;;;;;;5074887;28;20441;-86
2023/02/15 05:38:49;;;;;;;9.73;4.47;;;-1.40;97.30;;;;;;5092915;28;20210;-86
2023/02/15 05:41:15;;;;;;;3.10;2.90;;;-1.40;97.30;;;;;;5071347;28;20179;-86
2023/02/15 05:43:40;;;;;;;5.35;2.10;;;-1.40;97.30;;;;;;5077995;28;20475;-86
2023/02/15 05:46:06;;;;;;;2.20;2.07;;;-1.40;97.30;;;;;;5059216;28;20202;-85
2023/02/15 05:48:33;;;;;;;4.50;4.20;;;-1.40;97.30;;;;;;5075852;28;20699;-86
2023/02/15 05:51:04;;;;;;;3.50;2.85;;;-1.50;97.30;;;;;;5090658;28;20236;-86
2023/02/15 05:53:32;;;;;;;4.40;3.50;;;-1.50;97.30;;;;;;5070984;28;20716;-85
2023/02/15 05:56:01;;;;;;;21.80;4.60;;;-1.50;97.30;;;;;;5079353;28;20433;-86
2023/02/15 05:58:29;;;;;;;20.50;8.65;;;-1.50;97.30;;;;;;5070829;28;20216;-86
2023/02/15 06:00:54;;;;;;;4.70;2.10;;;-1.50;97.30;;;;;;5063847;28;20227;-86
2023/02/15 06:03:20;;;;;;;4.30;4.00;;;-1.50;97.30;;;;;;5081909;28;20199;-85
2023/02/15 06:05:46;;;;;;;6.25;4.10;;;-1.50;97.30;;;;;;5059584;28;20214;-85
2023/02/15 06:08:11;;;;;;;5.20;3.30;;;-1.60;97.30;;;;;;5058289;28;20397;-85
2023/02/15 06:10:37;;;;;;;9.07;3.53;;;-1.60;97.30;;;;;;5058463;28;20215;-86
2023/02/15 06:13:02;;;;;;;3.05;2.85;;;-1.60;97.30;;;;;;5057354;28;20603;-85
2023/02/15 06:15:28;;;;;;;4.27;3.03;;;-1.60;97.30;;;;;;5058598;28;20241;-85
2023/02/15 06:17:53;;;;;;;4.17;3.80;;;-1.70;97.30;;;;;;5059516;28;20536;-85
2023/02/15 06:20:19;;;;;;;10.03;3.33;;;-1.70;97.30;;;;;;5077808;28;20178;-85
2023/02/15 06:22:44;;;;;;;4.43;3.63;;;-1.70;97.30;;;;;;5058353;28;20178;-85
2023/02/15 06:25:11;;;;;;;2.97;2.77;;;-1.70;97.30;;;;;;5065082;28;20160;-85
2023/02/15 06:27:37;;;;;;;3.80;3.35;;;-1.70;97.30;;;;;;5058592;28;20220;-85
2023/02/15 06:30:05;;;;;;;10.55;3.10;;;-1.70;97.30;;;;;;5070133;28;20249;-85
2023/02/15 06:32:31;;;;;;;3.40;3.05;;;-1.70;97.30;;;;;;5089887;28;20483;-85
2023/02/15 06:34:56;;;;;;;2.90;2.70;;;-1.70;97.30;;;;;;5064196;28;20327;-85
2023/02/15 06:37:22;;;;;;;3.35;3.15;;;-1.70;97.30;;;;;;5061408;28;20682;-85
2023/02/15 06:39:47;;;;;;;4.00;3.80;;;-1.70;97.30;;;;;;5061842;28;20234;-85
2023/02/15 06:42:13;;;;;;;2.85;2.65;;;-1.70;97.30;;;;;;5061184;28;20186;-85
2023/02/15 06:44:38;;;;;;;2.20;2.00;;;-1.70;97.30;;;;;;5069720;28;20268;-86
2023/02/15 06:47:04;;;;;;;5.20;3.75;;;-1.70;97.30;;;;;;5069289;28;20230;-85
2023/02/15 06:49:29;;;;;;;2.20;2.00;;;-1.70;97.30;;;;;;5060709;28;20177;-85
2023/02/15 06:51:55;;;;;;;2.30;1.70;;;-1.70;97.30;;;;;;5061740;28;20246;-86
2023/02/15 06:54:20;;;;;;;6.10;4.00;;;-1.60;97.30;;;;;;5065171;28;20222;-85
2023/02/15 06:56:46;;;;;;;2.90;2.00;;;-1.60;97.30;;;;;;5062803;28;20262;-85
2023/02/15 06:59:11;;;;;;;3.87;3.67;;;-1.50;97.30;;;;;;5060580;28;20768;-85
2023/02/15 07:01:37;;;;;;;12.37;4.30;;;-1.50;97.30;;;;;;5060906;28;20715;-86
2023/02/15 07:04:03;;;;;;;2.80;2.60;;;-1.40;97.30;;;;;;5061439;28;20285;-85
2023/02/15 07:06:33;;;;;;;4.83;2.60;;;-1.30;97.30;;;;;;5060309;28;20487;-86
2023/02/15 07:08:58;;;;;;;6.60;6.20;;;-1.20;97.30;;;;;;5070653;28;20213;-85
2023/02/15 07:14:09;;;;;;;6.63;2.90;;;-1.10;97.30;;;;;;5072422;28;20196;-85
2023/02/15 07:16:35;;;;;;;2.37;2.17;;;-1.00;97.30;;;;;;5059614;28;20328;-86
2023/02/15 07:19:00;;;;;;;4.45;4.05;;;-1.00;97.30;;;;;;5060226;28;20271;-85
2023/02/15 07:21:26;;;;;;;5.77;2.20;;;-0.90;97.30;;;;;;5068885;28;20242;-85
2023/02/15 07:23:54;;;;;;;3.20;3.00;;;-0.80;97.30;;;;;;5071236;28;20725;-85
2023/02/15 07:26:19;;;;;;;6.10;2.80;;;-0.70;97.30;;;;;;5074106;28;20394;-86
2023/02/15 07:28:45;;;;;;;2.23;2.07;;;-0.60;97.30;;;;;;5061251;28;20886;-86
2023/02/15 07:31:10;;;;;;;4.00;3.05;;;-0.50;97.30;;;;;;5058224;28;20174;-86
2023/02/15 07:33:36;;;;;;;3.10;2.60;;;-0.40;97.30;;;;;;5071112;28;20702;-85
2023/02/15 07:36:03;;;;;;;3.40;3.20;;;-0.30;97.30;;;;;;5068031;28;20230;-86
2023/02/15 07:38:34;;;;;;;4.77;3.07;;;-0.20;97.30;;;;;;5077502;28;20231;-85
2023/02/15 07:41:02;;;;;;;5.60;3.60;;;-0.10;97.30;;;;;;5059910;28;20412;-86
2023/02/15 07:43:29;;;;;;;8.95;3.50;;;0.10;97.30;;;;;;5059998;28;20428;-85
2023/02/15 07:45:58;;;;;;;3.43;2.63;;;0.20;97.30;;;;;;5060282;28;20275;-84
2023/02/15 07:48:24;;;;;;;2.85;2.65;;;0.30;97.30;;;;;;5060889;28;20452;-85
2023/02/15 07:50:49;;;;;;;7.30;3.85;;;0.50;97.30;;;;;;5063495;28;20759;-85
2023/02/15 07:53:15;;;;;;;3.83;2.73;;;0.60;97.30;;;;;;5073020;28;20179;-85
2023/02/15 07:55:40;;;;;;;5.10;4.20;;;0.80;97.30;;;;;;5081176;28;20199;-86
2023/02/15 07:58:05;;;;;;;5.30;4.10;;;0.90;97.30;;;;;;5077517;28;20186;-86
2023/02/15 08:00:55;;;;;;;9.70;2.80;;;1.10;97.30;;;;;;5096817;28;20199;-85
2023/02/15 08:03:16;;;;;;;6.20;4.10;;;1.20;97.30;;;;;;5086925;28;20178;-86
2023/02/15 08:05:44;;;;;;;3.40;3.20;;;1.30;97.30;;;;;;5072443;28;20242;-85
2023/02/15 08:08:29;;;;;;;4.40;3.60;;;1.40;97.30;;;;;;5081441;28;20194;-85
2023/02/15 08:11:28;;;;;;;5.40;3.90;;;1.50;97.30;;;;;;5070247;28;20201;-86
2023/02/15 08:14:04;;;;;;;2.60;2.40;;;1.70;97.30;;;;;;5091391;28;20485;-86
2023/02/15 08:16:33;;;;;;;5.13;4.30;;;1.80;97.30;;;;;;5063040;28;20437;-86
2023/02/15 08:19:01;;;;;;;3.75;2.45;;;1.90;97.30;;;;;;5066486;28;20241;-86
2023/02/15 08:21:29;;;;;;;1.40;1.30;;;2.10;97.30;;;;;;5058733;28;20416;-86
2023/02/15 08:23:55;;;;;;;4.40;2.57;;;2.20;97.30;;;;;;5059234;28;20250;-85
2023/02/15 08:26:21;;;;;;;4.03;3.83;;;2.30;97.30;;;;;;5061661;28;20235;-85
2023/02/15 08:28:48;;;;;;;15.37;2.27;;;2.40;97.30;;;;;;5067671;28;20237;-85
2023/02/15 08:31:14;;;;;;;2.63;2.43;;;2.50;97.30;;;;;;5057594;28;20409;-86
2023/02/15 08:33:41;;;;;;;2.33;2.13;;;2.60;97.30;;;;;;5057762;28;20724;-85
2023/02/15 08:36:10;;;;;;;3.13;2.33;;;2.80;97.30;;;;;;5087465;28;20570;-85
2023/02/15 08:38:36;;;;;;;5.17;3.57;;;2.90;97.30;;;;;;5056697;28;20736;-85
2023/02/15 08:41:24;;;;;;;4.77;2.70;;;3.00;97.30;;;;;;5076879;28;20499;-86
2023/02/15 08:43:53;;;;;;;5.03;2.30;;;3.20;97.30;;;;;;5057960;28;20420;-87
2023/02/15 08:46:20;;;;;;;4.07;3.43;;;3.40;97.30;;;;;;5072969;28;20465;-86
2023/02/15 08:48:46;;;;;;;2.00;1.90;;;3.50;97.30;;;;;;5055397;28;20620;-86
2023/02/15 08:51:18;;;;;;;6.97;2.17;;;3.60;97.30;;;;;;5055333;28;20492;-86
2023/02/15 08:53:45;;;;;;;2.27;2.07;;;3.70;97.30;;;;;;5056612;28;20423;-87
2023/02/15 08:56:11;;;;;;;5.37;4.03;;;3.90;97.30;;;;;;5063932;28;20860;-85
2023/02/15 08:58:37;;;;;;;5.50;1.87;;;4.00;97.30;;;;;;5059045;28;20466;-86
2023/02/15 09:01:24;;;;;;;3.53;2.50;;;4.20;97.30;;;;;;5055906;28;20433;-86
2023/02/15 09:03:54;;;;;;;2.53;2.33;;;4.40;97.30;;;;;;5056813;28;20428;-87
2023/02/15 09:06:21;;;;;;;2.50;2.30;;;4.50;97.30;;;;;;5055927;28;20432;-84
2023/02/15 09:08:47;;;;;;;1.80;1.70;;;4.60;97.30;;;;;;5081875;28;20842;-84
2023/02/15 09:11:25;;;;;;;3.57;1.77;;;4.70;97.30;;;;;;5070711;28;20412;-86
2023/02/15 09:13:53;;;;;;;2.43;2.23;;;4.80;97.30;;;;;;5055538;28;20432;-85
2023/02/15 09:16:19;;;;;;;3.53;3.33;;;5.00;97.30;;;;;;5055301;28;20857;-87
2023/02/15 09:18:45;;;;;;;4.03;2.90;;;5.10;97.30;;;;;;5055067;28;20457;-87
2023/02/15 09:21:16;;;;;;;4.73;3.43;;;5.20;97.30;;;;;;5068548;28;20419;-84
2023/02/15 09:23:43;;;;;;;2.30;2.10;;;5.30;97.30;;;;;;5083872;28;20413;-86
2023/02/15 09:26:11;;;;;;;2.93;2.10;;;5.40;97.30;;;;;;5055109;28;20432;-83
2023/02/15 09:28:38;;;;;;;3.70;3.33;;;5.40;97.30;;;;;;5054428;28;20972;-83
2023/02/15 09:31:14;;;;;;;1.57;1.47;;;5.50;97.30;;;;;;5054091;28;20417;-86
2023/02/15 09:33:42;;;;;;;9.33;3.00;;;5.50;97.30;;;;;;5054653;28;20405;-84
2023/02/15 09:36:21;;;;;;;2.43;2.00;;;5.60;97.30;;;;;;5077351;28;20460;-84
2023/02/15 09:38:47;;;;;;;1.77;1.73;;;5.70;97.30;;;;;;5058149;28;20897;-84
2023/02/15 09:41:40;;;;;;;1.50;1.40;;;5.80;97.30;;;;;;5061184;28;20409;-84
2023/02/15 09:44:13;;;;;;;2.13;1.97;;;5.90;97.30;;;;;;5064648;28;20182;-84
2023/02/15 09:47:13;;;;;;;4.20;3.33;;;6.00;97.30;;;;;;5058634;28;20434;-84
2023/02/15 09:50:23;;;;;;;3.23;2.87;;;6.20;97.30;;;;;;5073143;28;20419;-83
2023/02/15 09:53:12;;;;;;;1.70;1.60;;;6.20;97.30;;;;;;5064003;28;20444;-83
2023/02/15 09:55:38;;;;;;;2.27;1.93;;;6.40;97.30;;;;;;5091216;28;20428;-83
2023/02/15 09:58:11;;;;;;;1.87;1.77;;;6.50;97.30;;;;;;5053812;28;20494;-83
2023/02/15 10:00:54;;;;;;;3.73;3.47;;;6.60;97.30;;;;;;5053579;28;20653;-84
2023/02/15 10:03:31;;;;;;;3.37;2.97;;;6.70;97.30;;;;;;5066805;28;20431;-84
2023/02/15 10:06:31;;;;;;;2.50;2.07;;;6.80;97.30;;;;;;5056885;28;20442;-83
2023/02/15 10:09:11;;;;;;;2.73;1.80;;;6.90;97.30;;;;;;5086688;28;20432;-84
2023/02/15 10:12:18;;;;;;;5.57;2.33;;;7.10;97.30;;;;;;5061052;28;20420;-84
2023/02/15 10:15:11;;;;;;;2.53;2.33;;;7.20;97.30;;;;;;5050068;28;20421;-84
2023/02/15 10:17:36;;;;;;;3.13;2.27;;;7.30;97.30;;;;;;5087773;28;20920;-84
2023/02/15 10:20:31;;;;;;;1.37;1.27;;;7.50;97.30;;;;;;5075913;28;20472;-84
2023/02/15 10:23:14;;;;;;;2.83;1.80;;;7.60;97.30;;;;;;5075840;28;20171;-83
2023/02/15 10:26:07;;;;;;;3.03;2.10;;;7.70;97.30;;;;;;5068504;28;20985;-83
2023/02/15 10:28:44;;;;;;;5.30;2.47;;;7.90;97.30;;;;;;5064709;28;20415;-84
2023/02/15 10:31:23;;;;;;;4.07;2.03;;;7.90;97.10;;;;;;5050300;28;20679;-84
2023/02/15 10:33:59;;;;;;;2.17;1.77;;;8.00;97.10;;;;;;5056790;28;20416;-84
2023/02/15 10:36:43;;;;;;;3.53;3.00;;;8.10;97.00;;;;;;5056945;28;20215;-84
2023/02/15 10:39:37;;;;;;;3.33;3.13;;;8.30;96.70;;;;;;5049435;28;20456;-84
2023/02/15 10:42:37;;;;;;;3.50;2.23;;;8.40;96.70;;;;;;5091562;28;20417;-84
2023/02/15 10:45:26;;;;;;;2.53;2.33;;;8.50;96.20;;;;;;5095185;28;20416;-84
2023/02/15 10:48:09;;;;;;;6.43;3.53;;;8.70;96.20;;;;;;5078731;28;20460;-84
2023/02/15 10:50:35;;;;;;;;;;;8.90;95.50;;;;;;5068603;28;20451;-84
2023/02/15 10:53:29;;;;;;;3.00;2.80;;;9.00;94.80;;;;;;5065663;28;20268;-84
2023/02/15 10:56:13;;;;;;;;;;;9.10;94.40;;;;;;5071571;28;20527;-84
2023/02/15 10:58:57;;;;;;;;;;;9.20;93.50;;;;;;5056976;28;20252;-84
2023/02/15 11:01:37;;;;;;;;;;;9.20;93.80;;;;;;5083050;28;20224;-84
2023/02/15 11:04:33;;;;;;;;;;;9.40;93.40;;;;;;5092331;28;20240;-83
2023/02/15 11:07:02;;;;;;;;;;;9.60;92.90;;;;;;5081873;28;20248;-83
2023/02/15 11:09:33;;;;;;;;;;;9.70;93.00;;;;;;5086568;28;20184;-84
2023/02/15 11:12:00;;;;;;;1.70;1.50;;;9.90;92.70;;;;;;5065733;28;20473;-84
2023/02/15 11:14:44;;;;;;;6.37;3.03;;;10.00;92.70;;;;;;5057251;28;20579;-84
2023/02/15 11:17:15;;;;;;;1.40;1.30;;;10.10;92.10;;;;;;5092315;28;20434;-84
2023/02/15 11:20:07;;;;;;;4.75;2.90;;;10.20;91.60;;;;;;5081725;28;20760;-84
2023/02/15 11:22:34;;;;;;;2.60;2.40;;;;;;;;;;5073966;28;20799;-84
2023/02/15 11:25:00;;;;;;;;;;;10.40;90.90;;;;;;5060390;28;20496;-84
2023/02/15 11:27:29;;;;;;;;;;;10.50;90.30;;;;;;5060208;28;20239;-84
2023/02/15 11:30:10;;;;;;;3.20;2.40;;;10.70;90.80;;;;;;5077511;28;20444;-84
2023/02/15 11:32:40;;;;;;;3.25;2.35;;;10.70;89.40;;;;;;5061216;28;20449;-84
2023/02/15 11:35:27;;;;;;;3.70;2.00;;;10.80;89.80;;;;;;5067224;28;20219;-83
2023/02/15 11:38:17;;;;;;;10.15;2.85;;;11.00;90.00;;;;;;5056697;28;20244;-84
2023/02/15 11:41:24;;;;;;;2.20;1.35;;;11.00;89.00;;;;;;5056967;28;20942;-84
2023/02/15 11:44:01;;;;;;;5.20;2.50;;;11.10;88.30;;;;;;4982494;28;20758;-84
2023/02/15 11:46:27;;;;;;;;;;;11.20;88.50;;;;;;5044356;28;20266;-83
2023/02/15 11:48:52;;;;;;;;;;;11.30;88.20;;;;;;5075396;28;20751;-83
2023/02/15 11:51:19;;;;;;;;;;;11.40;87.90;;;;;;5056223;28;20192;-82
2023/02/15 11:53:45;;;;;;;;;;;;;;;;;;5074342;28;20200;-84
2023/02/15 11:56:22;;;;;;;;;;;11.30;87.80;;;;;;5094843;28;20199;-84
2023/02/15 11:58:51;;;;;;;;;;;11.30;88.00;;;;;;5067282;28;20284;-83
2023/02/15 12:01:20;;;;;;;;;;;11.30;87.60;;;;;;5056880;28;20177;-83
2023/02/15 12:03:45;;;;;;;;;;;11.50;88.40;;;;;;5055862;28;20260;-84
2023/02/15 12:06:34;;;;;;;10.80;5.10;;;11.60;88.10;;;;;;5064098;28;20249;-84
2023/02/15 12:09:31;;;;;;;3.30;2.25;;;11.80;88.10;;;;;;5063626;28;20172;-84
2023/02/15 12:12:26;;;;;;;1.85;1.75;;;11.90;87.30;;;;;;5055599;28;20408;-84
2023/02/15 12:14:54;;;;;;;2.00;1.90;;;11.90;86.80;;;;;;5063816;28;20399;-83
2023/02/15 12:17:26;;;;;;;4.30;2.40;;;11.90;86.50;;;;;;5057317;28;20442;-83
2023/02/15 12:20:03;;;;;;;5.30;2.70;;;11.90;86.30;;;;;;5075395;28;20681;-84
2023/02/15 12:22:36;;;;;;;2.90;2.50;;;11.90;86.80;;;;;;5058233;28;20427;-84
2023/02/15 12:25:17;;;;;;;3.50;3.30;;;11.90;87.00;;;;;;5081558;28;20717;-83
2023/02/15 12:27:43;;;;;;;2.85;1.75;;;12.10;87.20;;;;;;5081242;28;20293;-84
2023/02/15 12:30:23;;;;;;;2.10;2.00;;;12.20;86.50;;;;;;5063523;28;20218;-83
2023/02/15 12:32:56;;;;;;;5.73;3.47;;;12.40;86.20;;;;;;5072541;28;20195;-84
2023/02/15 12:35:30;;;;;;;2.50;2.00;;;12.50;85.80;;;;;;5066047;28;20457;-84
2023/02/15 12:38:01;;;;;;;1.25;1.15;;;12.70;86.00;;;;;;5055543;28;20210;-84
2023/02/15 12:40:29;;;;;;;2.20;2.10;;;12.80;84.90;;;;;;5055809;28;20222;-84
2023/02/15 12:42:55;;;;;;;2.00;1.90;;;12.90;84.50;;;;;;5073993;28;20471;-84
2023/02/15 12:45:28;;;;;;;;;;;13.00;84.80;;;;;;5075019;28;20302;-84
2023/02/15 12:48:13;;;;;;;2.10;1.83;;;13.20;84.60;;;;;;5073325;28;20214;-84
2023/02/15 12:50:40;;;;;;;3.53;2.63;;;13.40;83.30;;;;;;5054920;28;20412;-84
2023/02/15 12:53:16;;;;;;;5.97;2.33;;;13.20;82.80;;;;;;5080622;28;20424;-84
2023/02/15 12:55:56;;;;;;;5.63;2.70;;;13.10;83.90;;;;;;5063798;28;20441;-84
2023/02/15 12:58:25;;;;;;;2.20;1.97;;;13.40;84.30;;;;;;5078429;28;20451;-84
2023/02/15 13:01:08;;;;;;;4.03;3.27;;;13.50;82.00;;;;;;5092286;28;20416;-84
2023/02/15 13:03:34;;;;;;;3.63;2.30;;;13.50;82.40;;;;;;5067904;28;20512;-84
2023/02/15 13:06:05;;;;;;;2.70;2.17;;;13.60;81.90;;;;;;5072236;28;20441;-84
2023/02/15 13:08:33;;;;;;;1.97;1.87;;;13.50;81.70;;;;;;5056995;28;20913;-84
2023/02/15 13:11:04;;;;;;;3.10;2.83;;;13.60;82.30;;;;;;5072139;28;20431;-83
2023/02/15 13:13:34;;;;;;;4.70;1.67;;;13.70;82.00;;;;;;5054219;28;20433;-84
2023/02/15 13:16:07;;;;;;;7.10;2.50;;;13.70;81.70;;;;;;5074707;28;20574;-83
2023/02/15 13:18:35;;;;;;;;;;;13.90;81.90;;;;;;5066866;28;20266;-83
2023/02/15 13:21:11;;;;;;;3.97;2.80;;;14.20;80.60;;;;;;5063709;28;20250;-84
2023/02/15 13:23:38;;;;;;;1.77;1.70;;;14.40;78.00;;;;;;5053842;28;20417;-84
2023/02/15 13:26:09;;;;;;;4.23;2.70;;;14.40;77.60;;;;;;5053761;28;20428;-84
2023/02/15 13:28:41;;;;;;;2.05;1.85;;;;;;;;;;5069432;28;20419;-84
2023/02/15 13:31:15;;;;;;;3.25;2.40;;;14.60;78.00;;;;;;5070756;28;20315;-84
2023/02/15 13:33:46;;;;;;;2.05;1.90;;;14.80;76.80;;;;;;5069768;28;20225;-84
2023/02/15 13:36:20;;;;;;;2.30;1.97;;;14.80;77.00;;;;;;5065607;28;20774;-83
2023/02/15 13:39:09;;;;;;;1.80;1.70;;;15.10;77.30;;;;;;5059760;28;20838;-84
2023/02/15 13:42:02;;;;;;;2.35;2.15;;;15.50;76.20;;;;;;5048041;28;20221;-84
2023/02/15 13:44:49;;;;;;;2.20;2.00;;;15.70;75.00;;;;;;5064529;28;20507;-84
2023/02/15 13:47:26;;;;;;;2.20;2.00;;;15.60;73.60;;;;;;5045720;28;20597;-84